Time;durP1;ratioP1;P1;durP2;ratioP2;P2;SDS_P1;SDS_P2;PMS_P1;PMS_P2;Temp;Humidity;BMP_temperature;BMP_pressure;BME280_temperature;BME280_humidity;BME280_pressure;Samples;Min_cycle;Max_cycle;Signal;HPM_P1;HPM_P2
2023/03/19 00:00:18;;;;;;;9.20;8.40;;;;;;;-145.53;100.00;64590.91;6254628;28;20566;-59
2023/03/19 00:03:28;;;;;;;9.00;8.20;;;;;;;-145.53;100.00;64590.91;6250782;28;20490;-58
2023/03/19 00:06:35;;;;;;;8.80;8.00;;;;;;;-145.53;100.00;64590.91;6247251;28;20439;-62
2023/03/19 00:09:42;;;;;;;8.33;7.63;;;;;;;-145.53;100.00;64590.91;6259584;28;20626;-59
2023/03/19 00:12:52;;;;;;;9.13;8.23;;;;;;;-145.53;100.00;64590.91;6252196;28;20425;-60
2023/03/19 00:16:01;;;;;;;7.70;7.10;;;;;;;-145.53;100.00;64590.91;6248965;28;20519;-61
2023/03/19 00:19:10;;;;;;;7.70;7.10;;;;;;;-145.53;100.00;64590.91;6248275;28;20471;-60
2023/03/19 00:22:19;;;;;;;7.20;6.60;;;;;;;-145.53;100.00;64590.91;6258953;28;20912;-61
2023/03/19 00:25:27;;;;;;;8.07;7.47;;;;;;;-145.53;100.00;64590.91;6257004;28;20436;-60
2023/03/19 00:28:37;;;;;;;8.20;7.50;;;;;;;-145.53;100.00;64590.91;6249320;28;20583;-60
2023/03/19 00:31:46;;;;;;;7.40;6.80;;;;;;;-145.53;100.00;64590.91;6252371;28;20587;-61
2023/03/19 00:34:57;;;;;;;7.87;7.17;;;;;;;-145.53;100.00;64590.91;6254223;28;21262;-60
2023/03/19 00:38:03;;;;;;;7.23;6.63;;;;;;;-145.53;100.00;64590.91;6259169;28;20523;-60
2023/03/19 00:41:11;;;;;;;7.77;7.07;;;;;;;-145.53;100.00;64590.91;6248715;28;20797;-60
2023/03/19 00:44:21;;;;;;;7.80;7.10;;;;;;;-145.53;100.00;64590.91;6257075;28;20530;-62
2023/03/19 00:47:31;;;;;;;6.97;6.37;;;;;;;-145.53;100.00;64590.91;6258452;28;20417;-62
2023/03/19 00:50:39;;;;;;;7.10;6.50;;;;;;;-145.53;100.00;64590.91;6255681;28;20531;-61
2023/03/19 00:53:46;;;;;;;6.87;6.27;;;;;;;-145.53;100.00;64590.91;6244472;28;21019;-62
2023/03/19 00:56:56;;;;;;;6.03;5.53;;;;;;;-145.53;100.00;64590.91;6246234;28;20460;-62
2023/03/19 01:00:03;;;;;;;7.07;6.47;;;;;;;-145.53;100.00;64590.91;6258833;28;20467;-62
2023/03/19 01:03:09;;;;;;;6.37;5.87;;;;;;;-145.53;100.00;64590.91;6280948;22;20458;-62
2023/03/19 01:06:18;;;;;;;6.30;5.80;;;;;;;-145.53;100.00;64590.91;6301697;28;20447;-60
2023/03/19 01:09:26;;;;;;;6.17;5.67;;;;;;;-145.53;100.00;64590.91;6304110;28;20465;-60
2023/03/19 01:12:32;;;;;;;5.93;5.43;;;;;;;-145.53;100.00;64590.91;6298730;28;20428;-61
2023/03/19 01:15:41;;;;;;;5.60;5.10;;;;;;;-145.53;100.00;64590.91;6287386;28;20599;-60
2023/03/19 01:18:52;;;;;;;5.80;5.37;;;;;;;-145.53;100.00;64590.91;6295814;28;20433;-60
2023/03/19 01:22:03;;;;;;;5.13;4.73;;;;;;;-145.53;100.00;64590.91;6292630;28;20435;-61
2023/03/19 01:25:12;;;;;;;5.70;5.20;;;;;;;-145.53;100.00;64590.91;6293005;28;20443;-60
2023/03/19 01:28:21;;;;;;;6.13;5.53;;;;;;;-145.53;100.00;64590.91;6302774;28;20450;-60
2023/03/19 01:31:29;;;;;;;5.77;5.27;;;;;;;-145.53;100.00;64590.91;6294339;28;20431;-60
2023/03/19 01:34:36;;;;;;;5.00;4.50;;;;;;;-145.53;100.00;64590.91;6300648;28;20445;-60
2023/03/19 01:37:43;;;;;;;4.93;4.53;;;;;;;-145.53;100.00;64590.91;6290639;28;20954;-60
2023/03/19 01:40:51;;;;;;;5.10;4.70;;;;;;;-145.53;100.00;64590.91;6296897;28;20434;-59
2023/03/19 01:43:59;;;;;;;4.80;4.40;;;;;;;-145.53;100.00;64590.91;6301838;28;20440;-61
2023/03/19 01:47:10;;;;;;;4.93;4.53;;;;;;;-145.53;100.00;64590.91;6296206;28;20438;-60
2023/03/19 01:50:29;;;;;;;4.80;4.40;;;;;;;-145.53;100.00;64590.91;6290478;28;20434;-60
2023/03/19 01:53:39;;;;;;;4.57;4.13;;;;;;;-145.53;100.00;64590.91;6291790;28;20423;-60
2023/03/19 01:56:52;;;;;;;5.27;4.87;;;;;;;-145.53;100.00;64590.91;6289222;28;20430;-60
2023/03/19 02:00:03;;;;;;;5.70;5.20;;;;;;;-145.53;100.00;64590.91;6291937;28;20450;-61
2023/03/19 02:03:10;;;;;;;5.03;4.60;;;;;;;-145.53;100.00;64590.91;6293211;28;20459;-60
2023/03/19 02:06:20;;;;;;;5.13;4.73;;;;;;;-145.53;100.00;64590.91;6290432;28;20827;-60
2023/03/19 02:09:32;;;;;;;5.40;5.00;;;;;;;-145.53;100.00;64590.91;6288067;28;20435;-61
2023/03/19 02:12:41;;;;;;;4.87;4.47;;;;;;;-145.53;100.00;64590.91;6275667;28;20446;-61
2023/03/19 02:15:51;;;;;;;4.67;4.27;;;;;;;-145.53;100.00;64590.91;6277350;28;20415;-60
2023/03/19 02:19:01;;;;;;;5.80;5.30;;;;;;;-145.53;100.00;64590.91;6287894;28;20433;-61
2023/03/19 02:22:08;;;;;;;5.37;4.90;;;;;;;-145.53;100.00;64590.91;6283606;28;20442;-60
2023/03/19 02:25:28;;;;;;;5.33;4.93;;;;;;;-145.53;100.00;64590.91;6287208;28;20442;-61
2023/03/19 02:28:40;;;;;;;5.03;4.63;;;;;;;-145.53;100.00;64590.91;6283849;28;20430;-59
2023/03/19 02:31:46;;;;;;;5.87;5.40;;;;;;;-145.53;100.00;64590.91;6290117;28;20447;-61
2023/03/19 02:34:56;;;;;;;5.03;4.53;;;;;;;-145.53;100.00;64590.91;6275753;28;20474;-62
2023/03/19 02:38:06;;;;;;;5.37;4.87;;;;;;;-145.53;100.00;64590.91;6289722;28;20812;-62
2023/03/19 02:41:17;;;;;;;4.90;4.50;;;;;;;-145.53;100.00;64590.91;6286703;28;20427;-61
2023/03/19 02:44:29;;;;;;;5.23;4.83;;;;;;;-145.53;100.00;64590.91;6285332;28;20424;-61
2023/03/19 02:47:37;;;;;;;5.07;4.57;;;;;;;-145.53;100.00;64590.91;6278857;28;20500;-61
2023/03/19 02:50:46;;;;;;;5.13;4.63;;;;;;;-145.53;100.00;64590.91;6293770;28;20509;-61
2023/03/19 02:53:54;;;;;;;5.77;5.27;;;;;;;-145.53;100.00;64590.91;6300024;28;20787;-61
2023/03/19 02:57:02;;;;;;;5.63;5.13;;;;;;;-145.53;100.00;64590.91;6267978;28;20439;-60
2023/03/19 03:00:11;;;;;;;5.03;4.63;;;;;;;-145.53;100.00;64590.91;6294440;28;20438;-61
2023/03/19 03:03:20;;;;;;;5.23;4.80;;;;;;;-145.53;100.00;64590.91;6285898;28;20816;-60
2023/03/19 03:06:30;;;;;;;5.90;5.40;;;;;;;-145.53;100.00;64590.91;6284021;28;20915;-60
2023/03/19 03:09:38;;;;;;;5.17;4.67;;;;;;;-145.53;100.00;64590.91;6287313;28;20435;-60
2023/03/19 03:12:45;;;;;;;5.03;4.63;;;;;;;-145.53;100.00;64590.91;6293393;28;20446;-60
2023/03/19 03:15:57;;;;;;;5.40;5.00;;;;;;;-145.53;100.00;64590.91;6268254;28;20431;-60
2023/03/19 03:19:04;;;;;;;5.87;5.30;;;;;;;-145.53;100.00;64590.91;6296117;28;20431;-60
2023/03/19 03:22:13;;;;;;;5.63;4.57;;;;;;;-145.53;100.00;64590.91;6285379;28;20447;-60
2023/03/19 03:25:22;;;;;;;5.47;5.00;;;;;;;-145.53;100.00;64590.91;6274685;28;20439;-59
2023/03/19 03:28:31;;;;;;;5.00;4.60;;;;;;;-145.53;100.00;64590.91;6291850;28;20431;-60
2023/03/19 03:31:39;;;;;;;5.40;4.93;;;;;;;-145.53;100.00;64590.91;6274696;28;20436;-60
2023/03/19 03:34:47;;;;;;;5.60;5.10;;;;;;;-145.53;100.00;64590.91;6289324;28;20443;-61
2023/03/19 03:37:54;;;;;;;4.70;4.30;;;;;;;-145.53;100.00;64590.91;6296323;28;20479;-60
2023/03/19 03:41:03;;;;;;;4.93;4.53;;;;;;;-145.53;100.00;64590.91;6301535;28;20570;-60
2023/03/19 03:44:10;;;;;;;5.27;4.87;;;;;;;-145.53;100.00;64590.91;6269816;28;20971;-60
2023/03/19 03:47:19;;;;;;;5.00;4.60;;;;;;;-145.53;100.00;64590.91;6281425;28;20443;-60
2023/03/19 03:50:27;;;;;;;5.03;4.63;;;;;;;-145.53;100.00;64590.91;6285273;28;20764;-60
2023/03/19 03:53:33;;;;;;;4.40;4.10;;;;;;;-145.53;100.00;64590.91;6279662;28;20435;-60
2023/03/19 03:56:40;;;;;;;5.40;5.00;;;;;;;-145.53;100.00;64590.91;6279321;28;20927;-60
2023/03/19 03:59:47;;;;;;;5.30;4.90;;;;;;;-145.53;100.00;64590.91;6275332;28;20443;-60
2023/03/19 04:02:58;;;;;;;4.60;4.20;;;;;;;-145.53;100.00;64590.91;6285354;28;20450;-60
2023/03/19 04:06:06;;;;;;;5.30;4.80;;;;;;;-145.53;100.00;64590.91;6273342;28;20447;-61
2023/03/19 04:09:16;;;;;;;4.87;4.47;;;;;;;-145.53;100.00;64590.91;6294454;28;20427;-61
2023/03/19 04:12:25;;;;;;;4.67;4.27;;;;;;;-145.53;100.00;64590.91;6290258;28;20432;-61
2023/03/19 04:15:33;;;;;;;4.83;4.43;;;;;;;-145.53;100.00;64590.91;6282616;28;20506;-62
2023/03/19 04:18:40;;;;;;;4.50;4.10;;;;;;;-145.53;100.00;64590.91;6258085;28;20937;-61
2023/03/19 04:21:50;;;;;;;5.07;4.40;;;;;;;-145.53;100.00;64590.91;6278802;28;20430;-61
2023/03/19 04:24:57;;;;;;;4.43;4.13;;;;;;;-145.53;100.00;64590.91;6286087;28;20424;-61
2023/03/19 04:28:06;;;;;;;5.37;4.87;;;;;;;-145.53;100.00;64590.91;6280652;28;20447;-60
2023/03/19 04:31:15;;;;;;;5.53;5.03;;;;;;;-145.53;100.00;64590.91;6282507;28;20446;-61
2023/03/19 04:34:24;;;;;;;5.70;5.10;;;;;;;-145.53;100.00;64590.91;6285428;28;20416;-60
2023/03/19 04:37:35;;;;;;;4.73;4.33;;;;;;;-145.53;100.00;64590.91;6287520;28;20478;-60
2023/03/19 04:40:45;;;;;;;5.63;5.13;;;;;;;-145.53;100.00;64590.91;6272207;28;20438;-60
2023/03/19 04:43:50;;;;;;;5.50;5.00;;;;;;;-145.53;100.00;64590.91;6291311;28;21191;-60
2023/03/19 04:46:56;;;;;;;5.10;4.70;;;;;;;-145.53;100.00;64590.91;6284362;28;20453;-59
2023/03/19 04:50:06;;;;;;;5.43;4.93;;;;;;;-145.53;100.00;64590.91;6285619;28;20447;-66
2023/03/19 04:53:15;;;;;;;16.30;14.83;;;;;;;-145.53;100.00;64590.91;6272312;28;20451;-60
2023/03/19 04:56:25;;;;;;;18.20;16.57;;;;;;;-145.53;100.00;64590.91;6276904;28;20927;-61
2023/03/19 04:59:34;;;;;;;19.20;17.57;;;;;;;-145.53;100.00;64590.91;6296312;28;20438;-64
2023/03/19 05:02:42;;;;;;;19.57;17.77;;;;;;;-145.53;100.00;64590.91;6272768;28;20940;-60
2023/03/19 05:05:56;;;;;;;18.00;16.50;;;;;;;-145.53;100.00;64590.91;6280350;28;20926;-63
2023/03/19 05:09:03;;;;;;;15.30;14.03;;;;;;;-145.53;100.00;64590.91;6287386;28;20428;-62
2023/03/19 05:12:14;;;;;;;14.70;13.30;;;;;;;-145.53;100.00;64590.91;6285240;28;20430;-62
2023/03/19 05:15:27;;;;;;;16.83;15.37;;;;;;;-145.53;100.00;64590.91;6282671;28;20450;-62
2023/03/19 05:18:37;;;;;;;16.20;14.80;;;;;;;-145.53;100.00;64590.91;6286294;28;20924;-62
2023/03/19 05:21:51;;;;;;;14.47;13.20;;;;;;;-145.53;100.00;64590.91;6276871;28;20431;-63
2023/03/19 05:24:59;;;;;;;13.60;12.20;;;;;;;-145.53;100.00;64590.91;6271212;28;20477;-62
2023/03/19 05:28:07;;;;;;;12.43;11.00;;;;;;;-145.53;100.00;64590.91;6277165;28;20462;-61
2023/03/19 05:31:13;;;;;;;10.90;10.10;;;;;;;-145.53;100.00;64590.91;6290459;28;20518;-60
2023/03/19 05:34:19;;;;;;;11.30;10.40;;;;;;;-145.53;100.00;64590.91;6278943;28;20506;-60
2023/03/19 05:37:26;;;;;;;9.50;8.23;;;;;;;-145.53;100.00;64590.91;6272170;28;20957;-61
2023/03/19 05:40:32;;;;;;;8.23;7.53;;;;;;;-145.53;100.00;64590.91;6269415;28;20439;-65
2023/03/19 05:43:37;;;;;;;8.23;7.43;;;;;;;-145.53;100.00;64590.91;6281552;28;20443;-65
2023/03/19 05:46:43;;;;;;;7.90;7.20;;;;;;;-145.53;100.00;64590.91;6269050;28;20448;-64
2023/03/19 05:49:49;;;;;;;7.63;7.03;;;;;;;-145.53;100.00;64590.91;6266130;28;20459;-65
2023/03/19 05:53:04;;;;;;;8.60;7.83;;;;;;;-145.53;100.00;64590.91;6288713;28;20426;-64
2023/03/19 05:56:12;;;;;;;8.37;7.57;;;;;;;-145.53;100.00;64590.91;6288128;28;20555;-64
2023/03/19 05:59:21;;;;;;;8.40;7.20;;;;;;;-145.53;100.00;64590.91;6290937;28;20457;-63
2023/03/19 06:02:28;;;;;;;8.07;7.30;;;;;;;-145.53;100.00;64590.91;6276347;28;20446;-63
2023/03/19 06:05:37;;;;;;;6.67;6.07;;;;;;;-145.53;100.00;64590.91;6288344;28;20442;-60
2023/03/19 06:08:48;;;;;;;8.23;7.40;;;;;;;-145.53;100.00;64590.91;6277798;28;20489;-60
2023/03/19 06:11:58;;;;;;;7.70;7.00;;;;;;;-145.53;100.00;64590.91;6275230;28;20521;-62
2023/03/19 06:15:08;;;;;;;8.80;7.93;;;;;;;-145.53;100.00;64590.91;6299172;28;20439;-61
2023/03/19 06:18:20;;;;;;;8.73;7.60;;;;;;;-145.53;100.00;64590.91;6282583;28;20442;-61
2023/03/19 06:21:29;;;;;;;9.50;7.60;;;;;;;-145.53;100.00;64590.91;6282786;28;20466;-61
2023/03/19 06:24:46;;;;;;;9.67;7.50;;;;;;;-145.53;100.00;64590.91;6294085;28;20437;-61
2023/03/19 06:27:54;;;;;;;9.03;8.10;;;;;;;-145.53;100.00;64590.91;6297537;28;20438;-61
2023/03/19 06:31:01;;;;;;;7.70;7.00;;;;;;;-145.53;100.00;64590.91;6311307;28;20427;-61
2023/03/19 06:34:09;;;;;;;8.47;7.30;;;;;;;-145.53;100.00;64590.91;6301970;28;20477;-61
2023/03/19 06:37:19;;;;;;;8.87;7.63;;;;;;;-145.53;100.00;64590.91;6312171;28;20438;-61
2023/03/19 06:40:31;;;;;;;7.50;6.80;;;;;;;-145.53;100.00;64590.91;6311965;28;20433;-60
2023/03/19 06:43:43;;;;;;;8.40;7.30;;;;;;;-145.53;100.00;64590.91;6312053;28;20743;-61
2023/03/19 06:46:53;;;;;;;9.77;7.60;;;;;;;-145.53;100.00;64590.91;6281978;28;20446;-60
2023/03/19 06:50:07;;;;;;;8.03;7.10;;;;;;;-145.53;100.00;64590.91;6286861;28;20427;-60
2023/03/19 06:53:17;;;;;;;8.30;7.30;;;;;;;-145.53;100.00;64590.91;6286822;28;20983;-60
2023/03/19 06:56:28;;;;;;;7.73;6.93;;;;;;;-145.53;100.00;64590.91;6281366;28;20450;-61
2023/03/19 06:59:35;;;;;;;9.00;6.87;;;;;;;-145.53;100.00;64590.91;6281183;28;20473;-61
2023/03/19 07:02:45;;;;;;;7.40;6.23;;;;;;;-145.53;100.00;64590.91;6285717;28;20446;-60
2023/03/19 07:05:57;;;;;;;5.73;5.23;;;;;;;-145.53;100.00;64590.91;6286518;28;20420;-60
2023/03/19 07:09:07;;;;;;;7.43;5.80;;;;;;;-145.53;100.00;64590.91;6275809;28;20455;-60
2023/03/19 07:12:26;;;;;;;8.93;6.50;;;;;;;-145.53;100.00;64590.91;6286399;28;20444;-60
2023/03/19 07:15:35;;;;;;;6.70;6.03;;;;;;;-145.53;100.00;64590.91;6286348;28;20913;-60
2023/03/19 07:18:45;;;;;;;6.17;5.57;;;;;;;-145.53;100.00;64590.91;6278457;28;20495;-60
2023/03/19 07:21:57;;;;;;;6.90;5.73;;;;;;;-145.53;100.00;64590.91;6275265;28;20522;-60
2023/03/19 07:25:09;;;;;;;6.10;5.50;;;;;;;-145.53;100.00;64590.91;6286049;28;20444;-60
2023/03/19 07:28:21;;;;;;;6.63;5.80;;;;;;;-145.53;100.00;64590.91;6285898;28;20428;-59
2023/03/19 07:31:33;;;;;;;6.93;5.80;;;;;;;-145.53;100.00;64590.91;6275504;28;20947;-60
2023/03/19 07:34:42;;;;;;;6.37;5.77;;;;;;;-145.53;100.00;64590.91;6285962;28;20438;-59
2023/03/19 07:37:52;;;;;;;6.50;5.90;;;;;;;-145.53;100.00;64590.91;6285440;28;20419;-60
2023/03/19 07:41:03;;;;;;;5.77;5.17;;;;;;;-145.53;100.00;64590.91;6284574;28;20929;-60
2023/03/19 07:44:14;;;;;;;6.20;5.60;;;;;;;-145.53;100.00;64590.91;6274768;28;20923;-60
2023/03/19 07:47:27;;;;;;;6.30;5.07;;;;;;;-145.53;100.00;64590.91;6277553;28;20442;-60
2023/03/19 07:50:37;;;;;;;6.30;5.70;;;;;;;-145.53;100.00;64590.91;6285590;28;20476;-59
2023/03/19 07:53:45;;;;;;;5.70;5.20;;;;;;;-145.53;100.00;64590.91;6249162;28;20587;-60
2023/03/19 07:56:56;;;;;;;6.60;5.50;;;;;;;-145.53;100.00;64590.91;6255182;28;20441;-60
2023/03/19 08:00:08;;;;;;;6.23;4.90;;;;;;;-145.53;100.00;64590.91;6279817;28;20535;-60
2023/03/19 08:03:20;;;;;;;5.90;5.30;;;;;;;-145.53;100.00;64590.91;6284520;28;20456;-62
2023/03/19 08:06:33;;;;;;;6.03;5.30;;;;;;;-145.53;100.00;64590.91;6274648;28;20515;-60
2023/03/19 08:09:44;;;;;;;6.73;5.40;;;;;;;-145.53;100.00;64590.91;6276999;28;20420;-61
2023/03/19 08:12:57;;;;;;;7.10;6.40;;;;;;;-145.53;100.00;64590.91;6267444;28;20444;-60
2023/03/19 08:16:09;;;;;;;6.83;6.23;;;;;;;-145.53;100.00;64590.91;6270974;28;20426;-60
2023/03/19 08:19:15;;;;;;;6.27;5.67;;;;;;;-145.53;100.00;64590.91;6274662;28;20468;-60
2023/03/19 08:22:24;;;;;;;6.40;4.97;;;;;;;-145.53;100.00;64590.91;6285088;28;20423;-60
2023/03/19 08:25:37;;;;;;;6.00;5.50;;;;;;;-145.53;100.00;64590.91;6285343;28;20534;-60
2023/03/19 08:28:45;;;;;;;7.43;6.73;;;;;;;-145.53;100.00;64590.91;6266655;28;20450;-60
2023/03/19 08:31:54;;;;;;;6.80;5.97;;;;;;;-145.53;100.00;64590.91;6279015;28;20443;-60
2023/03/19 08:35:01;;;;;;;6.47;5.87;;;;;;;-145.53;100.00;64590.91;6295618;22;20792;-62
2023/03/19 08:38:08;;;;;;;9.10;8.20;;;;;;;-145.53;100.00;64590.91;6284464;28;20989;-63
2023/03/19 08:41:12;;;;;;;9.17;8.37;;;;;;;-145.53;100.00;64590.91;6280650;28;20430;-62
2023/03/19 08:44:16;;;;;;;8.30;7.50;;;;;;;-145.53;100.00;64590.91;6310615;28;20437;-60
2023/03/19 08:47:23;;;;;;;8.97;8.07;;;;;;;-145.53;100.00;64590.91;6287777;28;20450;-60
2023/03/19 08:50:27;;;;;;;8.17;7.37;;;;;;;-145.53;100.00;64590.91;6282249;28;20570;-62
2023/03/19 08:53:35;;;;;;;9.73;7.93;;;;;;;-145.53;100.00;64590.91;6285729;28;20446;-60
2023/03/19 08:56:48;;;;;;;11.30;8.17;;;;;;;-145.53;100.00;64590.91;6309001;28;20480;-60
2023/03/19 09:00:01;;;;;;;7.63;6.90;;;;;;;-145.53;100.00;64590.91;6309262;28;20994;-60
2023/03/19 09:03:13;;;;;;;7.73;6.90;;;;;;;-145.53;100.00;64590.91;6297992;28;20438;-60
2023/03/19 09:06:25;;;;;;;9.83;7.63;;;;;;;-145.53;100.00;64590.91;6309212;28;20433;-60
2023/03/19 09:09:37;;;;;;;7.03;6.40;;;;;;;-145.53;100.00;64590.91;6309078;28;20509;-60
2023/03/19 09:12:45;;;;;;;8.97;8.07;;;;;;;-145.53;100.00;64590.91;6309192;28;20414;-60
2023/03/19 09:15:54;;;;;;;7.50;6.90;;;;;;;-145.53;100.00;64590.91;6289109;28;20450;-60
2023/03/19 09:19:07;;;;;;;7.03;6.47;;;;;;;-145.53;100.00;64590.91;6283996;28;20431;-60
2023/03/19 09:22:20;;;;;;;7.00;6.30;;;;;;;-145.53;100.00;64590.91;6284127;28;20427;-60
2023/03/19 09:25:31;;;;;;;6.37;5.77;;;;;;;-145.53;100.00;64590.91;6275294;28;20478;-60
2023/03/19 09:28:41;;;;;;;7.10;6.40;;;;;;;-145.53;100.00;64590.91;6283455;28;20462;-60
2023/03/19 09:31:52;;;;;;;7.00;6.13;;;;;;;-145.53;100.00;64590.91;6284200;28;20419;-60
2023/03/19 09:35:06;;;;;;;7.73;7.00;;;;;;;-145.53;100.00;64590.91;6283977;28;20456;-60
2023/03/19 09:38:21;;;;;;;7.10;6.43;;;;;;;-145.53;100.00;64590.91;6272805;28;20947;-61
2023/03/19 09:41:37;;;;;;;6.80;6.20;;;;;;;-145.53;100.00;64590.91;6283852;28;20420;-61
2023/03/19 09:44:48;;;;;;;6.27;5.67;;;;;;;-145.53;100.00;64590.91;6283500;28;20772;-60
2023/03/19 09:48:05;;;;;;;6.80;6.10;;;;;;;-145.53;100.00;64590.91;6278341;28;20962;-61
2023/03/19 09:51:26;;;;;;;6.83;6.20;;;;;;;-145.53;100.00;64590.91;6279858;28;20449;-61
2023/03/19 09:54:38;;;;;;;6.80;6.10;;;;;;;-145.53;100.00;64590.91;6307033;28;20517;-61
2023/03/19 09:57:48;;;;;;;7.03;6.27;;;;;;;-145.53;100.00;64590.91;6308165;28;20430;-60
2023/03/19 10:00:58;;;;;;;6.70;6.20;;;;;;;-145.53;100.00;64590.91;6297377;28;20434;-60
2023/03/19 10:04:32;;;;;;;8.33;6.50;;;;;;;-145.53;100.00;64590.91;6308732;28;20985;-61
2023/03/19 10:08:09;;;;;;;7.67;7.00;;;;;;;-145.53;100.00;64590.91;6312640;28;20863;-63
2023/03/19 10:11:29;;;;;;;7.53;6.93;;;;;;;-145.53;100.00;64590.91;6301890;28;20585;-61
2023/03/19 10:14:59;;;;;;;7.53;6.40;;;;;;;-145.53;100.00;64590.91;6312519;28;20492;-60
2023/03/19 10:18:12;;;;;;;9.30;8.50;;;;;;;-145.53;100.00;64590.91;6287536;28;20439;-66
2023/03/19 10:21:27;;;;;;;9.77;8.87;;;;;;;-145.53;100.00;64590.91;6287355;28;20441;-62
2023/03/19 10:24:40;;;;;;;11.47;10.33;;;;;;;-145.53;100.00;64590.91;6276644;28;20447;-62
2023/03/19 10:27:55;;;;;;;9.97;8.97;;;;;;;-145.53;100.00;64590.91;6287219;28;20419;-62
2023/03/19 10:31:19;;;;;;;9.77;8.67;;;;;;;-145.53;100.00;64590.91;6287384;28;20416;-62
2023/03/19 10:34:34;;;;;;;9.73;8.63;;;;;;;-145.53;100.00;64590.91;6286161;28;20449;-62
2023/03/19 10:37:44;;;;;;;10.53;9.53;;;;;;;-145.53;100.00;64590.91;6312211;28;20442;-60
2023/03/19 10:41:05;;;;;;;10.53;9.53;;;;;;;-145.53;100.00;64590.91;6312001;28;20790;-59
2023/03/19 10:44:20;;;;;;;10.07;8.97;;;;;;;-145.53;100.00;64590.91;6312320;28;20431;-60
2023/03/19 10:47:27;;;;;;;10.00;8.90;;;;;;;-145.53;100.00;64590.91;6279749;28;20435;-60
2023/03/19 10:50:35;;;;;;;9.07;8.17;;;;;;;-145.53;100.00;64590.91;6287299;28;20447;-60
2023/03/19 10:53:42;;;;;;;9.47;8.67;;;;;;;-145.53;100.00;64590.91;6286638;28;20804;-60
2023/03/19 10:56:50;;;;;;;8.90;8.13;;;;;;;-145.53;100.00;64590.91;6278182;28;22108;-65
2023/03/19 10:59:54;;;;;;;9.07;8.13;;;;;;;-145.53;100.00;64590.91;6286758;28;20515;-59
2023/03/19 11:03:04;;;;;;;9.43;8.10;;;;;;;-145.53;100.00;64590.91;6286970;28;20545;-59
2023/03/19 11:06:24;;;;;;;8.50;7.80;;;;;;;-145.53;100.00;64590.91;6286575;28;20454;-60
2023/03/19 11:09:34;;;;;;;8.30;7.60;;;;;;;-145.53;100.00;64590.91;6275734;28;20435;-60
2023/03/19 11:12:39;;;;;;;8.97;8.17;;;;;;;-145.53;100.00;64590.91;6286368;28;20439;-60
2023/03/19 11:15:47;;;;;;;8.60;7.80;;;;;;;-145.53;100.00;64590.91;6293017;28;20434;-60
2023/03/19 11:18:52;;;;;;;7.13;6.53;;;;;;;-145.53;100.00;64590.91;6308609;28;20557;-61
2023/03/19 11:22:02;;;;;;;7.80;7.00;;;;;;;-145.53;100.00;64590.91;6304910;28;20430;-60
2023/03/19 11:25:18;;;;;;;9.60;6.97;;;;;;;-145.53;100.00;64590.91;6310143;28;20441;-59
2023/03/19 11:28:31;;;;;;;6.90;6.20;;;;;;;-145.53;100.00;64590.91;6310928;28;20446;-59
2023/03/19 11:31:41;;;;;;;6.03;5.30;;;;;;;-145.53;100.00;64590.91;6299816;28;20442;-60
2023/03/19 11:34:52;;;;;;;7.07;6.53;;;;;;;-145.53;100.00;64590.91;6310839;28;20557;-60
2023/03/19 11:37:59;;;;;;;6.30;5.70;;;;;;;-145.53;100.00;64590.91;6303300;28;20424;-60
2023/03/19 11:41:17;;;;;;;5.73;5.20;;;;;;;-145.53;100.00;64590.91;6310468;28;20867;-60
2023/03/19 11:44:29;;;;;;;5.80;5.30;;;;;;;-145.53;100.00;64590.91;6274791;28;20435;-60
2023/03/19 11:47:42;;;;;;;6.50;6.00;;;;;;;-145.53;100.00;64590.91;6307433;28;20846;-59
2023/03/19 11:50:57;;;;;;;6.03;5.53;;;;;;;-145.53;100.00;64590.91;6310622;28;20511;-60
2023/03/19 11:54:06;;;;;;;6.10;5.60;;;;;;;-145.53;100.00;64590.91;6300133;28;20965;-61
2023/03/19 11:57:17;;;;;;;5.50;5.03;;;;;;;-145.53;100.00;64590.91;6310422;28;20584;-60
2023/03/19 12:00:32;;;;;;;4.97;4.57;;;;;;;-145.53;100.00;64590.91;6310532;28;20610;-59
2023/03/19 12:04:07;;;;;;;5.17;4.70;;;;;;;-145.53;100.00;64590.91;6310050;28;20443;-60
2023/03/19 12:07:22;;;;;;;5.27;4.87;;;;;;;-145.53;100.00;64590.91;6293475;28;20881;-60
2023/03/19 12:10:40;;;;;;;5.13;4.73;;;;;;;-145.53;100.00;64590.91;6310977;28;20427;-60
2023/03/19 12:14:02;;;;;;;5.57;5.17;;;;;;;-145.53;100.00;64590.91;6310827;28;20422;-59
2023/03/19 12:17:25;;;;;;;6.63;4.80;;;;;;;-145.53;100.00;64590.91;6282452;28;20448;-60
2023/03/19 12:20:42;;;;;;;6.03;5.17;;;;;;;-145.53;100.00;64590.91;6285328;28;20420;-60
2023/03/19 12:24:02;;;;;;;4.60;4.30;;;;;;;-145.53;100.00;64590.91;6285636;28;20428;-65
2023/03/19 12:27:23;;;;;;;5.13;4.73;;;;;;;-145.53;100.00;64590.91;6285003;28;20424;-64
2023/03/19 12:30:34;;;;;;;5.10;4.60;;;;;;;-145.53;100.00;64590.91;6279507;28;20482;-61
2023/03/19 12:33:47;;;;;;;5.30;4.80;;;;;;;-145.53;100.00;64590.91;6285193;28;21003;-62
2023/03/19 12:36:58;;;;;;;5.33;4.77;;;;;;;-145.53;100.00;64590.91;6285023;28;20443;-60
2023/03/19 12:40:23;;;;;;;4.77;4.37;;;;;;;-145.53;100.00;64590.91;6273915;28;20443;-62
2023/03/19 12:43:33;;;;;;;4.70;4.30;;;;;;;-145.53;100.00;64590.91;6304476;28;20445;-61
2023/03/19 12:46:43;;;;;;;5.23;4.40;;;;;;;-145.53;100.00;64590.91;6296326;28;20450;-60
2023/03/19 12:49:54;;;;;;;4.47;4.07;;;;;;;-145.53;100.00;64590.91;6284827;28;20489;-61
2023/03/19 12:53:01;;;;;;;5.43;4.30;;;;;;;-145.53;100.00;64590.91;6275988;28;20439;-61
2023/03/19 12:56:12;;;;;;;3.97;3.67;;;;;;;-145.53;100.00;64590.91;6284998;28;20439;-61
2023/03/19 12:59:25;;;;;;;4.40;4.10;;;;;;;-145.53;100.00;64590.91;6284710;28;20431;-60
2023/03/19 13:02:33;;;;;;;4.00;3.70;;;;;;;-145.53;100.00;64590.91;6273703;28;20450;-61
2023/03/19 13:05:44;;;;;;;4.20;3.80;;;;;;;-145.53;100.00;64590.91;6284426;28;20420;-63
2023/03/19 13:08:52;;;;;;;4.30;3.93;;;;;;;-145.53;100.00;64590.91;6284574;28;20513;-60
2023/03/19 13:12:01;;;;;;;4.13;3.73;;;;;;;-145.53;100.00;64590.91;6284625;28;20427;-60
2023/03/19 13:15:12;;;;;;;4.13;3.73;;;;;;;-145.53;100.00;64590.91;6274201;28;20915;-60
2023/03/19 13:18:29;;;;;;;4.00;3.70;;;;;;;-145.53;100.00;64590.91;6309316;28;20465;-61
2023/03/19 13:21:37;;;;;;;4.83;4.30;;;;;;;-145.53;100.00;64590.91;6307985;28;20418;-61
2023/03/19 13:24:44;;;;;;;4.00;3.70;;;;;;;-145.53;100.00;64590.91;6281403;28;20435;-65
2023/03/19 13:27:54;;;;;;;3.90;3.60;;;;;;;-145.53;100.00;64590.91;6281025;28;20447;-60
2023/03/19 13:31:02;;;;;;;3.70;3.40;;;;;;;-145.53;100.00;64590.91;6284193;28;20495;-60
2023/03/19 13:34:17;;;;;;;3.87;3.57;;;;;;;-145.53;100.00;64590.91;6283581;28;20530;-61
2023/03/19 13:37:24;;;;;;;3.77;3.40;;;;;;;-145.53;100.00;64590.91;6273176;28;20474;-60
2023/03/19 13:40:44;;;;;;;4.63;4.23;;;;;;;-145.53;100.00;64590.91;6286741;28;20419;-61
2023/03/19 13:43:55;;;;;;;3.53;3.23;;;;;;;-145.53;100.00;64590.91;6287380;28;20443;-61
2023/03/19 13:47:02;;;;;;;4.10;3.80;;;;;;;-145.53;100.00;64590.91;6299632;28;20423;-61
2023/03/19 13:50:32;;;;;;;3.53;3.23;;;;;;;-145.53;100.00;64590.91;6307637;28;20458;-61
2023/03/19 13:53:41;;;;;;;4.13;3.30;;;;;;;-145.53;100.00;64590.91;6309638;28;20442;-61
2023/03/19 13:57:07;;;;;;;3.40;3.10;;;;;;;-145.53;100.00;64590.91;6312992;28;20436;-60
2023/03/19 14:00:48;;;;;;;4.60;4.20;;;;;;;-145.53;100.00;64590.91;6302203;28;20448;-62
2023/03/19 14:03:55;;;;;;;3.87;3.57;;;;;;;-145.53;100.00;64590.91;6311035;28;20450;-61
2023/03/19 14:07:10;;;;;;;5.17;3.30;;;;;;;-145.53;100.00;64590.91;6296841;28;20978;-59
2023/03/19 14:10:20;;;;;;;4.27;3.97;;;;;;;-145.53;100.00;64590.91;6281218;28;21004;-60
2023/03/19 14:13:31;;;;;;;4.43;4.03;;;;;;;-145.53;100.00;64590.91;6286899;28;20981;-60
2023/03/19 14:16:38;;;;;;;4.07;3.77;;;;;;;-145.53;100.00;64590.91;6293711;28;20462;-61
2023/03/19 14:19:42;;;;;;;4.00;3.70;;;;;;;-145.53;100.00;64590.91;6302274;28;20493;-61
2023/03/19 14:22:56;;;;;;;5.47;3.77;;;;;;;-145.53;100.00;64590.91;6285727;28;20442;-63
2023/03/19 14:26:09;;;;;;;6.47;4.50;;;;;;;-145.53;100.00;64590.91;6292578;28;20492;-62